createdAt,value
2023-04-22T00:02:42.495Z,69.46
2023-04-22T00:05:17.189Z,69.38
2023-04-22T00:07:52.666Z,69.64
2023-04-22T00:10:24.776Z,69.64
2023-04-22T00:12:57.686Z,69.90
2023-04-22T00:15:29.738Z,70.96
2023-04-22T00:18:02.284Z,70.46
2023-04-22T00:20:34.493Z,70.55
2023-04-22T00:23:06.633Z,70.79
2023-04-22T00:25:38.776Z,70.82
2023-04-22T00:28:11.333Z,71.03
2023-04-22T00:30:43.444Z,70.88
2023-04-22T00:33:16.076Z,70.97
2023-04-22T00:35:48.928Z,70.97
2023-04-22T00:38:21.589Z,71.12
2023-04-22T00:40:53.666Z,71.22
2023-04-22T00:43:25.892Z,71.58
2023-04-22T00:45:59.857Z,71.74
2023-04-22T00:48:33.462Z,71.87
2023-04-22T00:51:06.362Z,71.92
2023-04-22T00:53:38.457Z,72.01
2023-04-22T00:56:12.717Z,72.12
2023-04-22T00:58:45.478Z,72.15
2023-04-22T01:01:18.100Z,72.14
2023-04-22T01:03:51.399Z,72.33
2023-04-22T01:06:26.603Z,72.36
2023-04-22T01:08:59.396Z,72.46
2023-04-22T01:11:32.140Z,72.64
2023-04-22T01:14:06.386Z,72.77
2023-04-22T01:16:43.630Z,72.93
2023-04-22T01:19:16.296Z,73.04
2023-04-22T01:21:51.678Z,73.16
2023-04-22T01:24:27.066Z,73.39
2023-04-22T01:27:02.379Z,73.53
2023-04-22T01:29:35.012Z,73.55
2023-04-22T01:32:07.728Z,73.72
2023-04-22T01:34:39.968Z,73.78
2023-04-22T01:37:12.055Z,73.90
2023-04-22T01:39:45.069Z,74.16
2023-04-22T01:42:17.773Z,74.15
2023-04-22T01:44:50.673Z,74.83
2023-04-22T01:47:22.779Z,74.62
2023-04-22T01:49:54.946Z,74.46
2023-04-22T01:52:27.746Z,74.38
2023-04-22T01:55:01.667Z,74.47
2023-04-22T01:57:33.740Z,74.36
2023-04-22T02:00:09.495Z,74.58
2023-04-22T02:02:44.676Z,74.71
2023-04-22T02:05:17.209Z,74.85
2023-04-22T02:07:54.642Z,75.32
2023-04-22T02:10:27.160Z,75.18
2023-04-22T02:12:59.420Z,75.35
2023-04-22T02:15:34.572Z,75.09
2023-04-22T02:18:06.994Z,75.29
2023-04-22T02:20:39.906Z,75.53
2023-04-22T02:23:12.575Z,75.76
2023-04-22T02:25:51.572Z,75.80
2023-04-22T02:28:24.449Z,75.75
2023-04-22T02:30:56.769Z,75.87
2023-04-22T02:33:29.326Z,75.88
2023-04-22T02:36:01.726Z,76.06
2023-04-22T02:38:37.939Z,76.05
2023-04-22T02:41:10.111Z,76.05
2023-04-22T02:43:46.098Z,76.28
2023-04-22T02:46:18.791Z,76.31
2023-04-22T02:48:50.958Z,76.15
2023-04-22T02:51:23.127Z,75.98
2023-04-22T02:53:55.490Z,76.30
2023-04-22T02:56:27.846Z,76.10
2023-04-22T02:59:00.014Z,76.23
2023-04-22T03:01:32.366Z,76.43
2023-04-22T03:04:06.290Z,76.53
2023-04-22T03:06:38.824Z,76.64
2023-04-22T03:09:11.121Z,76.85
2023-04-22T03:11:43.161Z,77.03
2023-04-22T03:14:15.446Z,77.28
2023-04-22T03:16:47.675Z,77.50
2023-04-22T03:19:20.399Z,77.50
2023-04-22T03:21:53.091Z,77.36
2023-04-22T03:24:25.527Z,77.50
2023-04-22T03:26:57.754Z,77.45
2023-04-22T03:29:29.939Z,77.40
2023-04-22T03:32:02.128Z,77.31
2023-04-22T03:34:35.851Z,77.37
2023-04-22T03:37:10.698Z,77.45
2023-04-22T03:39:42.952Z,77.56
2023-04-22T03:42:16.755Z,77.65
2023-04-22T03:44:49.088Z,77.78
2023-04-22T03:47:22.314Z,77.91
2023-04-22T03:50:00.960Z,77.94
2023-04-22T03:52:36.820Z,77.96
2023-04-22T03:55:10.006Z,78.23
2023-04-22T03:57:42.430Z,78.57
2023-04-22T04:00:16.008Z,78.62
2023-04-22T04:02:49.120Z,78.69
2023-04-22T04:05:23.308Z,78.86
2023-04-22T04:07:56.691Z,78.95
2023-04-22T04:10:29.212Z,79.08
2023-04-22T04:13:01.390Z,78.98
2023-04-22T04:15:36.957Z,79.29
2023-04-22T04:18:09.761Z,79.47
2023-04-22T04:20:42.219Z,79.60
2023-04-22T04:23:14.740Z,79.77
2023-04-22T04:25:47.946Z,79.95
2023-04-22T04:28:20.671Z,80.07
2023-04-22T04:30:53.886Z,80.27
2023-04-22T04:33:26.099Z,80.57
2023-04-22T04:35:58.542Z,80.60
2023-04-22T04:38:34.791Z,80.79
2023-04-22T04:41:09.761Z,81.02
2023-04-22T04:43:42.092Z,81.25
2023-04-22T04:46:21.192Z,81.45
2023-04-22T04:48:54.123Z,81.81
2023-04-22T04:51:27.918Z,81.92
2023-04-22T04:54:02.437Z,82.05
2023-04-22T04:56:39.080Z,82.47
2023-04-22T04:59:14.769Z,82.40
2023-04-22T05:01:47.457Z,82.65
2023-04-22T05:04:20.514Z,82.80
2023-04-22T05:06:53.385Z,82.87
2023-04-22T05:09:25.830Z,83.10
2023-04-22T05:11:57.932Z,83.14
2023-04-22T05:14:30.705Z,83.28
2023-04-22T05:17:03.935Z,83.41
2023-04-22T05:19:36.046Z,83.50
2023-04-22T05:22:08.522Z,83.74
2023-04-22T05:24:40.649Z,83.58
2023-04-22T05:27:14.308Z,83.91
2023-04-22T05:29:46.509Z,83.96
2023-04-22T05:32:21.971Z,84.03
2023-04-22T05:34:54.142Z,84.10
2023-04-22T05:37:27.310Z,84.53
2023-04-22T05:39:59.682Z,84.49
2023-04-22T05:42:32.736Z,84.46
2023-04-22T05:45:07.250Z,84.16
2023-04-22T05:47:39.220Z,84.06
2023-04-22T05:50:12.745Z,83.89
2023-04-22T05:53:02.504Z,82.86
2023-04-22T05:55:35.675Z,82.76
2023-04-22T05:58:08.121Z,82.30
2023-04-22T06:00:54.077Z,81.24
2023-04-22T06:04:01.590Z,81.20
2023-04-22T06:06:34.716Z,79.89
2023-04-22T06:09:07.253Z,79.74
2023-04-22T06:11:40.529Z,79.60
2023-04-22T06:14:13.172Z,79.98
2023-04-22T06:16:50.449Z,79.44
2023-04-22T06:19:22.580Z,78.45
2023-04-22T06:21:54.697Z,78.37
2023-04-22T06:24:33.709Z,77.99
2023-04-22T06:27:05.969Z,77.59
2023-04-22T06:29:38.172Z,77.54
2023-04-22T06:35:23.328Z,75.97
2023-04-22T06:37:55.642Z,75.54
2023-04-22T06:40:29.798Z,74.65
2023-04-22T06:43:22.036Z,73.96
2023-04-22T06:46:23.253Z,73.25
2023-04-22T06:49:28.541Z,72.57
2023-04-22T06:52:19.223Z,72.65
2023-04-22T06:54:51.298Z,71.20
2023-04-22T06:57:23.653Z,70.77
2023-04-22T06:59:55.774Z,69.83
2023-04-22T07:02:31.461Z,68.74
2023-04-22T07:05:04.065Z,67.77
2023-04-22T07:07:36.703Z,68.29
2023-04-22T07:10:10.880Z,67.43
2023-04-22T07:12:51.106Z,66.65
2023-04-22T07:15:23.252Z,65.23
2023-04-22T07:17:55.384Z,65.51
2023-04-22T07:20:27.568Z,65.97
2023-04-22T07:22:59.685Z,65.17
2023-04-22T07:25:31.828Z,65.10
2023-04-22T07:28:04.222Z,63.75
2023-04-22T07:30:36.372Z,63.28
2023-04-22T07:33:08.788Z,62.94
2023-04-22T07:35:41.110Z,60.56
2023-04-22T07:38:14.626Z,61.27
2023-04-22T07:40:50.576Z,61.12
2023-04-22T07:43:25.994Z,61.03
2023-04-22T07:45:58.117Z,60.31
2023-04-22T07:48:30.144Z,59.33
2023-04-22T07:51:02.103Z,58.38
2023-04-22T07:53:36.149Z,56.46
2023-04-22T07:56:08.493Z,56.50
2023-04-22T07:58:40.528Z,56.71
2023-04-22T08:01:12.584Z,57.29
2023-04-22T08:03:46.341Z,55.93
2023-04-22T08:06:18.988Z,55.04
2023-04-22T08:08:51.333Z,55.07
2023-04-22T08:11:23.292Z,54.45
2023-04-22T08:13:55.285Z,53.31
2023-04-22T08:16:27.447Z,52.49
2023-04-22T08:18:59.803Z,51.80
2023-04-22T08:21:31.868Z,52.24
2023-04-22T08:24:03.879Z,50.42
2023-04-22T08:26:36.919Z,48.66
2023-04-22T08:29:09.032Z,47.89
2023-04-22T08:31:41.363Z,49.76
2023-04-22T08:34:13.382Z,49.03
2023-04-22T08:36:45.593Z,48.21
2023-04-22T08:39:17.788Z,48.67
2023-04-22T08:41:50.224Z,48.43
2023-04-22T08:44:23.154Z,48.23
2023-04-22T08:46:57.170Z,47.07
2023-04-22T08:49:31.176Z,46.85
2023-04-22T08:52:05.507Z,46.92
2023-04-22T08:54:37.925Z,47.31
2023-04-22T08:57:11.740Z,46.83
2023-04-22T08:59:44.374Z,45.70
2023-04-22T09:02:18.508Z,44.77
2023-04-22T09:04:52.034Z,45.65
2023-04-22T09:07:26.599Z,45.81
2023-04-22T09:09:59.665Z,45.58
2023-04-22T09:12:31.742Z,44.59
2023-04-22T09:15:05.457Z,44.09
2023-04-22T09:17:39.313Z,45.03
2023-04-22T09:20:13.094Z,44.64
2023-04-22T09:22:48.574Z,44.24
2023-04-22T09:25:22.543Z,43.42
2023-04-22T09:27:55.904Z,43.32
2023-04-22T09:30:32.613Z,42.92
2023-04-22T09:33:07.162Z,42.77
2023-04-22T09:35:41.188Z,42.18
2023-04-22T09:38:14.592Z,41.76
2023-04-22T09:40:47.260Z,42.61
2023-04-22T09:43:21.051Z,43.20
2023-04-22T09:45:53.890Z,42.02
2023-04-22T09:48:26.348Z,41.64
2023-04-22T09:50:58.383Z,42.35
2023-04-22T09:53:30.387Z,41.42
2023-04-22T09:56:07.257Z,41.21
2023-04-22T09:58:44.303Z,41.40
2023-04-22T10:01:16.529Z,41.35
2023-04-22T10:03:48.665Z,40.94
2023-04-22T10:06:21.533Z,40.01
2023-04-22T10:08:53.736Z,40.51
2023-04-22T10:11:25.835Z,38.14
2023-04-22T10:13:58.469Z,38.45
2023-04-22T10:16:35.150Z,35.15
2023-04-22T10:19:09.966Z,35.58
2023-04-22T10:21:45.891Z,35.48
2023-04-22T10:24:21.806Z,36.22
2023-04-22T10:27:12.205Z,36.47
2023-04-22T10:29:43.485Z,33.86
2023-04-22T10:32:28.979Z,34.94
2023-04-22T10:35:16.497Z,35.35
2023-04-22T10:37:49.374Z,36.08
2023-04-22T10:40:22.826Z,36.28
2023-04-22T10:43:03.634Z,35.61
2023-04-22T10:45:36.731Z,36.06
2023-04-22T10:48:08.789Z,36.73
2023-04-22T10:50:41.167Z,37.26
2023-04-22T10:53:40.960Z,37.02
2023-04-22T10:56:21.176Z,36.00
2023-04-22T10:58:54.010Z,36.38
2023-04-22T11:01:29.044Z,36.32
2023-04-22T11:04:23.793Z,36.18
2023-04-22T11:07:32.057Z,35.74
2023-04-22T11:10:16.094Z,35.68
2023-04-22T11:12:50.891Z,35.98
2023-04-22T11:15:24.930Z,34.85
2023-04-22T11:17:57.673Z,34.41
2023-04-22T11:20:30.566Z,35.32
2023-04-22T11:23:03.762Z,34.94
2023-04-22T11:25:36.252Z,34.22
2023-04-22T11:28:08.798Z,31.93
2023-04-22T11:30:40.935Z,33.53
2023-04-22T11:33:17.327Z,33.29
2023-04-22T11:38:58.980Z,32.94
2023-04-22T11:41:31.817Z,33.34
2023-04-22T11:44:04.389Z,33.18
2023-04-22T11:46:39.592Z,32.31
2023-04-22T11:49:19.654Z,32.31
2023-04-22T11:51:58.864Z,33.06
2023-04-22T11:54:38.288Z,31.23
2023-04-22T11:57:15.544Z,32.35
2023-04-22T11:59:58.069Z,31.59
2023-04-22T12:02:30.406Z,30.77
2023-04-22T12:05:03.680Z,30.01
2023-04-22T12:07:35.926Z,30.12
2023-04-22T12:10:12.826Z,29.57
2023-04-22T12:12:44.988Z,29.89
2023-04-22T12:15:18.722Z,29.98
2023-04-22T12:17:52.996Z,29.62
2023-04-22T12:20:25.101Z,31.03
2023-04-22T12:22:58.839Z,31.96
2023-04-22T12:25:33.781Z,31.89
2023-04-22T12:28:05.952Z,32.32
2023-04-22T12:30:38.094Z,31.70
2023-04-22T12:33:10.836Z,30.12
2023-04-22T12:35:42.902Z,30.30
2023-04-22T12:38:14.945Z,31.12
2023-04-22T12:40:47.199Z,31.34
2023-04-22T12:43:19.986Z,31.69
2023-04-22T12:45:52.087Z,31.91
2023-04-22T12:48:24.157Z,31.99
2023-04-22T12:50:58.786Z,31.27
2023-04-22T12:53:31.064Z,31.46
2023-04-22T12:56:03.528Z,30.22
2023-04-22T12:58:35.487Z,30.94
2023-04-22T13:01:07.790Z,31.21
2023-04-22T13:03:39.907Z,30.24
2023-04-22T13:06:12.103Z,31.62
2023-04-22T13:08:44.243Z,32.03
2023-04-22T13:11:16.309Z,31.90
2023-04-22T13:13:48.358Z,31.91
2023-04-22T13:16:21.316Z,31.40
2023-04-22T13:18:53.420Z,31.68
2023-04-22T13:21:25.484Z,31.61
2023-04-22T13:23:57.540Z,30.30
2023-04-22T13:26:29.688Z,31.32
2023-04-22T13:29:02.918Z,31.41
2023-04-22T13:31:35.307Z,31.95
2023-04-22T13:37:19.348Z,31.31
2023-04-22T13:39:51.398Z,31.45
2023-04-22T13:42:23.724Z,31.10
2023-04-22T13:44:55.859Z,31.58
2023-04-22T13:47:27.860Z,31.27
2023-04-22T13:50:00.948Z,31.40
2023-04-22T13:52:33.009Z,30.70
2023-04-22T13:55:05.953Z,29.05
2023-04-22T13:57:40.775Z,29.65
2023-04-22T14:00:15.024Z,29.80
2023-04-22T14:02:47.856Z,29.21
2023-04-22T14:05:20.040Z,28.84
2023-04-22T14:07:52.142Z,28.54
2023-04-22T14:10:27.881Z,28.51
2023-04-22T14:13:00.813Z,29.39
2023-04-22T14:15:32.987Z,30.21
2023-04-22T14:18:05.621Z,29.97
2023-04-22T14:20:37.599Z,30.10
2023-04-22T14:23:09.696Z,30.07
2023-04-22T14:25:46.939Z,30.36
2023-04-22T14:28:19.165Z,30.45
2023-04-22T14:30:51.279Z,30.53
2023-04-22T14:33:26.933Z,29.79
2023-04-22T14:35:59.575Z,28.69
2023-04-22T14:38:35.362Z,28.95
2023-04-22T14:41:07.563Z,29.09
2023-04-22T14:43:39.825Z,28.23
2023-04-22T14:46:11.973Z,28.50
2023-04-22T14:48:45.759Z,28.54
2023-04-22T14:51:17.880Z,28.09
2023-04-22T14:53:50.291Z,28.69
2023-04-22T14:56:25.061Z,28.52
2023-04-22T14:58:57.141Z,28.28
2023-04-22T15:01:29.323Z,27.22
2023-04-22T15:04:01.606Z,27.50
2023-04-22T15:06:33.823Z,27.79
2023-04-22T15:09:05.988Z,28.42
2023-04-22T15:11:38.157Z,28.21
2023-04-22T15:14:10.456Z,28.73
2023-04-22T15:16:42.669Z,28.63
2023-04-22T15:19:14.939Z,28.66
2023-04-22T15:21:47.285Z,28.81
2023-04-22T15:24:20.085Z,29.19
2023-04-22T15:26:52.877Z,29.46
2023-04-22T15:29:25.391Z,29.64
2023-04-22T15:31:58.055Z,29.62
2023-04-22T15:37:40.195Z,28.21
2023-04-22T15:40:12.914Z,28.26
2023-04-22T15:42:45.385Z,28.60
2023-04-22T15:45:20.149Z,29.11
2023-04-22T15:47:54.451Z,28.58
2023-04-22T15:50:26.716Z,28.15
2023-04-22T15:52:58.916Z,28.71
2023-04-22T15:55:30.972Z,28.93
2023-04-22T15:58:03.129Z,28.71
2023-04-22T16:00:35.551Z,28.89
2023-04-22T16:03:10.704Z,28.94
2023-04-22T16:05:43.029Z,28.99
2023-04-22T16:08:15.142Z,29.37
2023-04-22T16:10:47.258Z,29.68
2023-04-22T16:13:19.578Z,29.73
2023-04-22T16:15:51.722Z,29.53
2023-04-22T16:18:23.916Z,29.46
2023-04-22T16:20:55.976Z,29.10
2023-04-22T16:23:28.127Z,29.59
2023-04-22T16:26:04.585Z,29.67
2023-04-22T16:28:36.701Z,29.99
2023-04-22T16:31:11.336Z,30.23
2023-04-22T16:33:43.530Z,30.25
2023-04-22T16:36:16.307Z,30.19
2023-04-22T16:38:48.446Z,30.58
2023-04-22T16:41:21.162Z,30.68
2023-04-22T16:43:53.397Z,31.28
2023-04-22T16:46:25.585Z,31.41
2023-04-22T16:48:57.824Z,31.55
2023-04-22T16:51:30.007Z,32.15
2023-04-22T16:54:02.091Z,31.86
2023-04-22T16:56:34.110Z,31.95
2023-04-22T16:59:06.749Z,32.00
2023-04-22T17:01:39.828Z,32.13
2023-04-22T17:04:12.413Z,32.22
2023-04-22T17:06:45.913Z,32.36
2023-04-22T17:09:18.112Z,32.50
2023-04-22T17:11:50.318Z,32.66
2023-04-22T17:14:22.852Z,32.46
2023-04-22T17:16:54.960Z,32.66
2023-04-22T17:19:28.014Z,32.87
2023-04-22T17:22:01.840Z,32.98
2023-04-22T17:24:34.304Z,33.15
2023-04-22T17:27:08.815Z,33.19
2023-04-22T17:29:41.382Z,33.29
2023-04-22T17:32:13.952Z,33.41
2023-04-22T17:34:46.099Z,33.58
2023-04-22T17:37:18.186Z,33.71
2023-04-22T17:39:50.739Z,33.92
2023-04-22T17:44:55.996Z,33.89
2023-04-22T17:47:30.927Z,34.21
2023-04-22T17:50:03.036Z,34.46
2023-04-22T17:52:35.222Z,34.79
2023-04-22T17:55:08.645Z,35.11
2023-04-22T17:57:42.086Z,35.58
2023-04-22T18:00:17.606Z,35.92
2023-04-22T18:02:50.322Z,36.35
2023-04-22T18:05:24.718Z,37.00
2023-04-22T18:08:00.835Z,37.04
2023-04-22T18:10:33.246Z,37.12
2023-04-22T18:13:08.257Z,37.33
2023-04-22T18:15:43.575Z,37.87
2023-04-22T18:18:17.236Z,38.35
2023-04-22T18:20:53.115Z,38.69
2023-04-22T18:23:25.232Z,38.59
2023-04-22T18:25:57.751Z,38.84
2023-04-22T18:28:32.791Z,38.96
2023-04-22T18:31:05.587Z,39.43
2023-04-22T18:33:40.767Z,39.77
2023-04-22T18:36:13.935Z,40.16
2023-04-22T18:38:46.487Z,40.36
2023-04-22T18:41:18.773Z,40.70
2023-04-22T18:47:05.104Z,41.19
2023-04-22T18:49:41.148Z,41.53
2023-04-22T18:52:13.408Z,41.68
2023-04-22T18:54:48.473Z,42.01
2023-04-22T18:57:25.927Z,42.43
2023-04-22T19:00:00.937Z,42.50
2023-04-22T19:02:35.546Z,42.84
2023-04-22T19:05:14.674Z,43.15
2023-04-22T19:07:46.933Z,43.53
2023-04-22T19:10:19.763Z,43.79
2023-04-22T19:12:52.737Z,44.18
2023-04-22T19:15:24.983Z,44.55
2023-04-22T19:17:57.229Z,44.78
2023-04-22T19:20:32.854Z,44.86
2023-04-22T19:23:07.674Z,44.90
2023-04-22T19:25:40.394Z,45.07
2023-04-22T19:28:13.195Z,45.31
2023-04-22T19:30:46.211Z,45.22
2023-04-22T19:33:21.497Z,45.75
2023-04-22T19:35:56.207Z,45.76
2023-04-22T19:38:28.347Z,46.25
2023-04-22T19:41:02.470Z,46.69
2023-04-22T19:43:36.480Z,47.20
2023-04-22T19:46:09.012Z,47.42
2023-04-22T19:48:42.182Z,47.89
2023-04-22T19:51:15.029Z,48.35
2023-04-22T19:53:48.077Z,48.50
2023-04-22T19:56:20.973Z,48.85
2023-04-22T19:58:53.219Z,48.91
2023-04-22T20:01:26.075Z,49.30
2023-04-22T20:03:59.588Z,49.62
2023-04-22T20:06:32.892Z,49.89
2023-04-22T20:09:06.280Z,50.12
2023-04-22T20:11:38.661Z,50.44
2023-04-22T20:14:13.927Z,50.70
2023-04-22T20:16:48.257Z,51.21
2023-04-22T20:19:20.888Z,51.41
2023-04-22T20:21:55.366Z,51.87
2023-04-22T20:24:28.936Z,52.51
2023-04-22T20:27:01.029Z,52.91
2023-04-22T20:29:33.882Z,52.78
2023-04-22T20:32:07.143Z,53.16
2023-04-22T20:34:40.284Z,53.53
2023-04-22T20:37:13.640Z,53.49
2023-04-22T20:39:46.796Z,53.45
2023-04-22T20:42:19.306Z,53.74
2023-04-22T20:44:51.533Z,54.25
2023-04-22T20:47:23.838Z,54.19
2023-04-22T20:49:56.399Z,54.47
2023-04-22T20:52:28.551Z,54.89
2023-04-22T20:55:01.938Z,55.10
2023-04-22T20:57:34.040Z,55.33
2023-04-22T21:00:07.771Z,55.31
2023-04-22T21:02:41.230Z,55.63
2023-04-22T21:05:14.915Z,55.72
2023-04-22T21:07:48.395Z,56.42
2023-04-22T21:10:25.385Z,56.49
2023-04-22T21:12:59.372Z,56.49
2023-04-22T21:15:32.919Z,56.86
2023-04-22T21:18:07.866Z,57.17
2023-04-22T21:20:46.539Z,57.38
2023-04-22T21:23:20.441Z,57.60
2023-04-22T21:25:55.148Z,57.82
2023-04-22T21:28:28.184Z,58.14
2023-04-22T21:31:01.565Z,58.56
2023-04-22T21:33:38.877Z,58.62
2023-04-22T21:36:36.686Z,58.52
2023-04-22T21:39:12.440Z,59.05
2023-04-22T21:41:44.785Z,59.31
2023-04-22T21:44:22.943Z,59.31
2023-04-22T21:46:55.875Z,59.64
2023-04-22T21:49:31.279Z,59.93
2023-04-22T21:52:06.721Z,60.18
2023-04-22T21:54:42.092Z,60.30
2023-04-22T21:57:15.071Z,60.51
2023-04-22T21:59:49.574Z,60.79
2023-04-22T22:02:22.380Z,60.93
2023-04-22T22:04:54.679Z,61.15
2023-04-22T22:07:30.581Z,61.42
2023-04-22T22:10:03.635Z,61.14
2023-04-22T22:12:36.066Z,61.54
2023-04-22T22:15:10.217Z,61.84
2023-04-22T22:17:46.116Z,62.06
2023-04-22T22:20:21.364Z,62.14
2023-04-22T22:22:53.574Z,62.49
2023-04-22T22:25:26.037Z,62.68
2023-04-22T22:27:58.299Z,62.59
2023-04-22T22:30:31.297Z,62.89
2023-04-22T22:33:04.713Z,62.86
2023-04-22T22:35:36.993Z,62.83
2023-04-22T22:38:09.271Z,63.19
2023-04-22T22:40:41.504Z,63.22
2023-04-22T22:43:14.608Z,63.39
2023-04-22T22:45:46.815Z,63.59
2023-04-22T22:48:19.046Z,63.54
2023-04-22T22:50:51.315Z,63.67
2023-04-22T22:53:23.736Z,64.04
2023-04-22T22:55:55.907Z,64.15
2023-04-22T22:58:28.367Z,64.46
2023-04-22T23:01:00.797Z,64.78
2023-04-22T23:03:33.852Z,64.80
2023-04-22T23:06:10.334Z,64.90
2023-04-22T23:08:42.526Z,65.12
2023-04-22T23:11:14.946Z,64.99
2023-04-22T23:13:47.943Z,65.04
2023-04-22T23:16:20.304Z,65.17
2023-04-22T23:18:53.437Z,65.58
2023-04-22T23:21:27.528Z,65.85
2023-04-22T23:24:03.846Z,65.76
2023-04-22T23:26:37.754Z,66.13
2023-04-22T23:29:11.166Z,66.22
2023-04-22T23:31:45.500Z,66.26
2023-04-22T23:34:20.885Z,66.36
2023-04-22T23:36:54.091Z,66.46
2023-04-22T23:39:27.625Z,66.58
2023-04-22T23:41:59.863Z,66.65
2023-04-22T23:44:32.158Z,67.05
2023-04-22T23:47:04.694Z,67.08
2023-04-22T23:49:37.168Z,67.19
2023-04-22T23:52:11.116Z,67.17
2023-04-22T23:54:47.824Z,67.03
2023-04-22T23:57:24.217Z,67.16
